createdAt,value
2018-09-27T00:00:53.442Z,5.90
2018-09-27T00:03:28.970Z,5.58
2018-09-27T00:06:04.561Z,6.08
2018-09-27T00:08:40.029Z,4.67
2018-09-27T00:11:15.634Z,4.95
2018-09-27T00:13:51.013Z,4.60
2018-09-27T00:16:26.607Z,5.83
2018-09-27T00:19:02.351Z,5.25
2018-09-27T00:21:37.892Z,5.50
2018-09-27T00:24:13.286Z,4.78
2018-09-27T00:26:48.688Z,5.20
2018-09-27T00:29:24.020Z,7.20
2018-09-27T00:31:59.693Z,4.50
2018-09-27T00:34:35.197Z,5.62
2018-09-27T00:37:10.814Z,4.55
2018-09-27T00:39:46.300Z,4.80
2018-09-27T00:42:21.782Z,4.70
2018-09-27T00:44:57.260Z,4.95
2018-09-27T00:47:32.767Z,4.60
2018-09-27T00:50:08.792Z,4.42
2018-09-27T00:52:44.678Z,4.55
2018-09-27T00:55:20.252Z,4.42
2018-09-27T00:57:55.736Z,5.05
2018-09-27T01:00:31.088Z,4.53
2018-09-27T01:03:06.880Z,3.85
2018-09-27T01:05:42.248Z,4.70
2018-09-27T01:08:17.644Z,4.45
2018-09-27T01:10:53.139Z,3.80
2018-09-27T01:13:28.931Z,4.20
2018-09-27T01:16:15.467Z,4.20
2018-09-27T01:18:51.108Z,4.72
2018-09-27T01:21:26.367Z,4.55
2018-09-27T01:24:02.061Z,3.75
2018-09-27T01:26:37.430Z,4.30
2018-09-27T01:29:12.914Z,4.40
2018-09-27T01:31:48.360Z,4.25
2018-09-27T01:34:23.881Z,4.78
2018-09-27T01:36:59.246Z,3.90
2018-09-27T01:39:34.837Z,5.12
2018-09-27T01:42:10.373Z,4.55
2018-09-27T01:44:45.900Z,4.47
2018-09-27T01:47:21.149Z,4.65
2018-09-27T01:49:56.878Z,5.37
2018-09-27T01:52:32.256Z,4.58
2018-09-27T01:55:07.917Z,4.37
2018-09-27T01:57:43.311Z,4.72
2018-09-27T02:00:18.730Z,4.85
2018-09-27T02:02:54.134Z,4.10
2018-09-27T02:05:30.043Z,5.37
2018-09-27T02:08:05.676Z,4.30
2018-09-27T02:10:41.321Z,4.58
2018-09-27T02:13:16.708Z,6.35
2018-09-27T02:15:52.383Z,5.40
2018-09-27T02:18:27.929Z,4.40
2018-09-27T02:21:03.426Z,4.37
2018-09-27T02:23:38.818Z,5.58
2018-09-27T02:26:14.377Z,6.30
2018-09-27T02:28:49.787Z,5.70
2018-09-27T02:31:25.353Z,5.50
2018-09-27T02:34:00.798Z,5.30
2018-09-27T02:36:36.451Z,6.25
2018-09-27T02:39:12.054Z,6.28
2018-09-27T02:41:47.501Z,5.95
2018-09-27T02:44:22.932Z,6.15
2018-09-27T02:46:58.546Z,6.37
2018-09-27T02:49:34.375Z,5.67
2018-09-27T02:52:10.010Z,5.65
2018-09-27T02:54:45.446Z,5.90
2018-09-27T02:57:20.907Z,5.50
2018-09-27T02:59:56.397Z,5.72
2018-09-27T03:02:31.797Z,6.05
2018-09-27T03:05:07.673Z,6.80
2018-09-27T03:07:43.164Z,5.47
2018-09-27T03:10:18.608Z,6.10
2018-09-27T03:12:54.064Z,6.62
2018-09-27T03:15:29.527Z,5.58
2018-09-27T03:18:05.121Z,5.70
2018-09-27T03:20:40.597Z,6.60
2018-09-27T03:23:16.043Z,6.33
2018-09-27T03:25:51.628Z,6.45
2018-09-27T03:28:27.244Z,7.08
2018-09-27T03:31:02.630Z,7.03
2018-09-27T03:33:38.237Z,7.00
2018-09-27T03:36:13.645Z,6.42
2018-09-27T03:38:49.209Z,7.05
2018-09-27T03:41:24.557Z,6.67
2018-09-27T03:44:00.268Z,6.35
2018-09-27T03:46:35.661Z,7.65
2018-09-27T03:49:11.306Z,7.05
2018-09-27T03:51:52.999Z,6.62
2018-09-27T03:54:28.744Z,7.12
2018-09-27T03:57:04.150Z,7.05
2018-09-27T03:59:39.870Z,6.85
2018-09-27T04:02:15.264Z,7.20
2018-09-27T04:04:50.833Z,6.53
2018-09-27T04:07:26.373Z,6.75
2018-09-27T04:10:02.007Z,7.28
2018-09-27T04:12:37.687Z,7.25
2018-09-27T04:15:14.289Z,6.60
2018-09-27T04:17:49.843Z,7.15
2018-09-27T04:20:25.260Z,7.40
2018-09-27T04:23:00.636Z,8.23
2018-09-27T04:25:36.075Z,7.62
2018-09-27T04:28:11.436Z,7.30
2018-09-27T04:30:47.273Z,7.42
2018-09-27T04:33:22.800Z,7.85
2018-09-27T04:35:58.304Z,7.35
2018-09-27T04:38:33.880Z,7.47
2018-09-27T04:41:09.377Z,7.30
2018-09-27T04:43:44.726Z,7.60
2018-09-27T04:46:20.162Z,9.70
2018-09-27T04:48:55.632Z,8.65
2018-09-27T04:51:31.287Z,8.50
2018-09-27T04:54:06.681Z,7.35
2018-09-27T04:56:42.145Z,8.55
2018-09-27T04:59:17.361Z,8.45
2018-09-27T05:01:52.773Z,8.40
2018-09-27T05:04:28.182Z,9.88
2018-09-27T05:07:03.660Z,10.58
2018-09-27T05:09:39.091Z,9.80
2018-09-27T05:12:14.565Z,10.45
2018-09-27T05:14:50.048Z,9.85
2018-09-27T05:17:25.706Z,10.75
2018-09-27T05:20:01.269Z,11.05
2018-09-27T05:22:36.811Z,10.95
2018-09-27T05:25:12.387Z,11.08
2018-09-27T05:27:48.039Z,10.28
2018-09-27T05:30:23.228Z,11.10
2018-09-27T05:32:58.657Z,10.43
2018-09-27T05:35:34.114Z,11.95
2018-09-27T05:38:09.942Z,11.70
2018-09-27T05:40:45.293Z,11.38
2018-09-27T05:43:21.058Z,10.20
2018-09-27T05:45:56.613Z,11.65
2018-09-27T05:48:32.238Z,11.53
2018-09-27T05:51:07.977Z,11.35
2018-09-27T05:53:43.493Z,10.68
2018-09-27T05:56:18.733Z,11.38
2018-09-27T05:58:54.176Z,10.45
2018-09-27T06:01:29.400Z,12.00
2018-09-27T06:04:04.864Z,10.88
2018-09-27T06:06:40.113Z,11.73
2018-09-27T06:09:15.582Z,11.33
2018-09-27T06:11:50.965Z,12.07
2018-09-27T06:14:26.452Z,12.98
2018-09-27T06:17:01.810Z,12.58
2018-09-27T06:19:37.236Z,13.93
2018-09-27T06:22:12.822Z,15.70
2018-09-27T06:24:48.505Z,13.90
2018-09-27T06:27:23.957Z,14.58
2018-09-27T06:29:59.357Z,15.00
2018-09-27T06:32:34.857Z,14.60
2018-09-27T06:35:10.384Z,14.63
2018-09-27T06:37:45.765Z,14.70
2018-09-27T06:40:21.457Z,13.95
2018-09-27T06:42:56.924Z,13.95
2018-09-27T06:45:32.550Z,12.43
2018-09-27T06:48:08.078Z,14.47
2018-09-27T06:50:43.686Z,13.62
2018-09-27T06:53:19.037Z,14.20
2018-09-27T06:55:54.506Z,13.40
2018-09-27T06:58:29.855Z,13.10
2018-09-27T07:01:05.414Z,12.70
2018-09-27T07:03:40.845Z,13.93
2018-09-27T07:06:16.518Z,13.30
2018-09-27T07:08:51.902Z,12.37
2018-09-27T07:11:27.382Z,15.40
2018-09-27T07:14:02.975Z,16.05
2018-09-27T07:16:38.504Z,14.95
2018-09-27T07:19:13.886Z,16.23
2018-09-27T07:21:49.365Z,14.75
2018-09-27T07:24:24.689Z,15.10
2018-09-27T07:27:00.301Z,15.20
2018-09-27T07:29:35.627Z,15.50
2018-09-27T07:32:11.067Z,15.77
2018-09-27T07:34:46.379Z,16.30
2018-09-27T07:37:21.922Z,14.93
2018-09-27T07:39:57.319Z,16.30
2018-09-27T07:42:32.904Z,17.15
2018-09-27T07:45:08.296Z,16.17
2018-09-27T07:47:43.789Z,16.87
2018-09-27T07:50:19.221Z,16.70
2018-09-27T07:52:54.732Z,16.50
2018-09-27T07:55:30.117Z,17.17
2018-09-27T07:58:05.837Z,19.17
2018-09-27T08:00:41.210Z,16.55
2018-09-27T08:03:16.827Z,17.82
2018-09-27T08:05:52.268Z,18.27
2018-09-27T08:08:27.817Z,17.73
2018-09-27T08:11:03.355Z,16.60
2018-09-27T08:13:38.712Z,16.55
2018-09-27T08:16:14.313Z,17.12
2018-09-27T08:18:49.854Z,16.20
2018-09-27T08:21:25.165Z,16.10
2018-09-27T08:24:00.695Z,16.13
2018-09-27T08:26:36.142Z,15.50
2018-09-27T08:29:11.620Z,15.60
2018-09-27T08:34:21.780Z,14.30
2018-09-27T09:05:20.743Z,15.05
2018-09-27T09:07:56.210Z,16.10
2018-09-27T09:10:31.836Z,15.07
2018-09-27T09:13:07.341Z,13.97
2018-09-27T09:15:42.797Z,13.43
2018-09-27T09:18:18.076Z,13.47
2018-09-27T09:20:53.583Z,13.90
2018-09-27T09:23:29.001Z,13.80
2018-09-27T09:26:04.614Z,13.90
2018-09-27T09:31:14.947Z,13.10
2018-09-27T09:33:50.485Z,12.70
2018-09-27T09:36:25.960Z,11.50
2018-09-27T09:39:01.241Z,12.50
2018-09-27T09:51:56.193Z,10.80
2018-09-27T09:57:07.341Z,9.80
2018-09-27T09:59:42.868Z,10.30
2018-09-27T10:02:18.552Z,10.50
2018-09-27T10:07:28.649Z,11.20
2018-09-27T10:22:57.950Z,9.60
2018-09-27T10:25:33.310Z,10.67
2018-09-27T10:28:09.069Z,10.00
2018-09-27T10:30:44.314Z,9.80
2018-09-27T10:33:19.873Z,9.93
2018-09-27T10:35:55.280Z,10.93
2018-09-27T10:38:30.952Z,11.10
2018-09-27T10:41:06.679Z,9.97
2018-09-27T10:43:42.346Z,8.63
2018-09-27T10:46:17.621Z,9.40
2018-09-27T10:48:53.063Z,9.30
2018-09-27T10:51:28.597Z,9.60
2018-09-27T10:54:04.504Z,9.67
2018-09-27T10:56:39.912Z,11.77
2018-09-27T10:59:15.541Z,11.13
2018-09-27T11:01:51.017Z,11.13
2018-09-27T11:04:26.689Z,11.20
2018-09-27T11:07:02.128Z,12.60
2018-09-27T11:09:37.694Z,12.47
2018-09-27T11:12:13.224Z,11.97
2018-09-27T11:14:50.297Z,12.47
2018-09-27T11:17:25.820Z,14.13
2018-09-27T11:20:01.492Z,11.57
2018-09-27T11:22:36.783Z,13.87
2018-09-27T11:25:12.128Z,14.87
2018-09-27T11:27:47.569Z,12.23
2018-09-27T11:30:28.281Z,13.03
2018-09-27T11:33:03.676Z,11.70
2018-09-27T11:35:39.082Z,14.27
2018-09-27T11:38:14.422Z,14.00
2018-09-27T11:40:50.032Z,14.13
2018-09-27T11:43:25.597Z,12.90
2018-09-27T11:46:01.045Z,11.70
2018-09-27T11:48:36.460Z,12.50
2018-09-27T11:51:12.025Z,12.30
2018-09-27T11:53:47.489Z,13.63
2018-09-27T11:56:22.955Z,14.07
2018-09-27T11:58:58.429Z,14.27
2018-09-27T12:01:33.858Z,13.20
2018-09-27T12:04:09.207Z,13.10
2018-09-27T12:06:44.849Z,14.40
2018-09-27T12:09:20.164Z,13.73
2018-09-27T12:11:56.474Z,13.33
2018-09-27T12:14:31.929Z,12.00
2018-09-27T12:17:07.376Z,12.93
2018-09-27T12:19:42.868Z,12.20
2018-09-27T12:22:18.255Z,12.70
2018-09-27T12:24:53.634Z,12.90
2018-09-27T12:27:29.370Z,12.67
2018-09-27T12:30:05.109Z,12.40
2018-09-27T12:32:40.639Z,12.47
2018-09-27T12:35:15.967Z,13.30
2018-09-27T12:37:51.877Z,13.30
2018-09-27T12:40:27.338Z,11.30
2018-09-27T12:43:03.110Z,12.20
2018-09-27T12:45:38.597Z,12.30
2018-09-27T12:48:14.040Z,11.57
2018-09-27T12:50:49.579Z,9.90
2018-09-27T12:53:25.091Z,11.13
2018-09-27T12:56:00.689Z,11.47
2018-09-27T12:58:36.150Z,11.60
2018-09-27T13:01:11.605Z,12.13
2018-09-27T13:03:47.157Z,11.17
2018-09-27T13:06:22.613Z,11.07
2018-09-27T13:08:58.017Z,11.70
2018-09-27T13:11:33.370Z,10.37
2018-09-27T13:14:09.416Z,12.40
2018-09-27T13:16:44.666Z,12.10
2018-09-27T13:19:20.348Z,11.07
2018-09-27T13:21:55.746Z,10.80
2018-09-27T13:24:31.149Z,11.57
2018-09-27T13:27:06.934Z,10.93
2018-09-27T13:29:42.614Z,12.30
2018-09-27T13:32:17.983Z,11.47
2018-09-27T13:34:53.397Z,9.80
2018-09-27T13:37:28.793Z,9.60
2018-09-27T13:40:04.352Z,9.90
2018-09-27T13:42:39.852Z,11.60
2018-09-27T13:45:15.433Z,10.73
2018-09-27T13:47:50.763Z,10.97
2018-09-27T13:50:26.403Z,11.03
2018-09-27T13:53:02.012Z,11.07
2018-09-27T13:55:37.542Z,10.73
2018-09-27T13:58:13.204Z,11.00
2018-09-27T14:00:48.681Z,10.43
2018-09-27T14:03:24.071Z,10.33
2018-09-27T14:05:59.701Z,10.10
2018-09-27T14:08:35.185Z,9.23
2018-09-27T14:11:10.689Z,8.97
2018-09-27T14:13:46.288Z,8.40
2018-09-27T14:16:21.864Z,8.73
2018-09-27T14:18:57.210Z,9.80
2018-09-27T14:21:32.864Z,8.37
2018-09-27T14:24:08.304Z,7.70
2018-09-27T14:26:43.904Z,8.23
2018-09-27T14:29:19.295Z,8.30
2018-09-27T14:31:54.941Z,9.00
2018-09-27T14:34:30.385Z,8.63
2018-09-27T14:37:05.956Z,8.07
2018-09-27T14:39:41.452Z,8.47
2018-09-27T14:42:17.005Z,7.90
2018-09-27T14:44:52.378Z,8.47
2018-09-27T14:47:27.957Z,8.70
2018-09-27T14:50:03.527Z,9.23
2018-09-27T14:52:39.140Z,9.33
2018-09-27T14:55:14.557Z,9.40
2018-09-27T14:57:50.086Z,9.40
2018-09-27T15:00:25.453Z,7.80
2018-09-27T15:03:00.957Z,8.47
2018-09-27T15:05:36.329Z,8.97
2018-09-27T15:08:11.821Z,7.97
2018-09-27T15:10:47.498Z,8.93
2018-09-27T15:13:22.995Z,8.73
2018-09-27T15:15:58.362Z,8.70
2018-09-27T15:18:34.010Z,8.90
2018-09-27T15:21:09.654Z,7.77
2018-09-27T15:23:45.133Z,8.77
2018-09-27T15:26:20.446Z,8.50
2018-09-27T15:28:56.008Z,8.47
2018-09-27T15:31:31.449Z,8.70
2018-09-27T15:34:06.895Z,8.73
2018-09-27T15:36:42.302Z,8.50
2018-09-27T15:39:17.733Z,8.23
2018-09-27T15:41:52.976Z,9.07
2018-09-27T15:44:28.491Z,9.17
2018-09-27T15:47:03.725Z,9.37
2018-09-27T15:49:39.240Z,11.37
2018-09-27T15:52:14.895Z,9.20
2018-09-27T15:54:50.273Z,8.37
2018-09-27T15:57:25.808Z,8.90
2018-09-27T16:00:01.421Z,9.10
2018-09-27T16:02:36.935Z,8.80
2018-09-27T16:05:12.299Z,8.80
2018-09-27T16:07:47.840Z,8.90
2018-09-27T16:10:23.369Z,9.33
2018-09-27T16:12:59.016Z,8.33
2018-09-27T16:15:34.457Z,10.20
2018-09-27T16:18:09.910Z,8.97
2018-09-27T16:20:45.325Z,10.27
2018-09-27T16:23:20.657Z,10.03
2018-09-27T16:25:56.153Z,14.37
2018-09-27T16:28:31.569Z,10.87
2018-09-27T16:31:07.332Z,12.93
2018-09-27T16:33:42.660Z,9.90
2018-09-27T16:36:18.267Z,35.87
2018-09-27T16:38:53.663Z,22.30
2018-09-27T16:41:29.215Z,92.57
2018-09-27T16:44:04.614Z,12.47
2018-09-27T16:46:40.264Z,17.90
2018-09-27T16:49:15.717Z,14.10
2018-09-27T16:51:51.606Z,9.03
2018-09-27T16:54:26.991Z,11.87
2018-09-27T16:57:02.636Z,42.03
2018-09-27T16:59:38.327Z,10.00
2018-09-27T17:02:13.933Z,12.90
2018-09-27T17:04:49.373Z,27.00
2018-09-27T17:07:25.145Z,11.03
2018-09-27T17:10:00.545Z,15.90
2018-09-27T17:12:36.174Z,9.90
2018-09-27T17:15:11.576Z,14.03
2018-09-27T17:17:47.237Z,11.83
2018-09-27T17:20:22.546Z,13.13
2018-09-27T17:22:58.300Z,16.23
2018-09-27T17:25:33.725Z,10.50
2018-09-27T17:28:09.513Z,10.40
2018-09-27T17:33:24.268Z,15.77
2018-09-27T17:35:59.643Z,22.53
2018-09-27T17:38:35.513Z,18.10
2018-09-27T17:41:10.910Z,17.10
2018-09-27T17:43:46.593Z,14.13
2018-09-27T17:46:22.091Z,10.90
2018-09-27T17:48:57.795Z,12.33
2018-09-27T17:51:33.285Z,10.27
2018-09-27T17:54:08.841Z,13.17
2018-09-27T17:56:44.175Z,13.53
2018-09-27T17:59:19.604Z,12.80
2018-09-27T18:01:54.869Z,14.60
2018-09-27T18:04:30.460Z,12.60
2018-09-27T18:07:05.992Z,12.30
2018-09-27T18:09:41.659Z,13.47
2018-09-27T18:12:17.135Z,13.23
2018-09-27T18:14:52.544Z,16.60
2018-09-27T18:17:27.973Z,15.43
2018-09-27T18:20:03.628Z,18.70
2018-09-27T18:22:39.267Z,16.93
2018-09-27T18:25:14.759Z,16.33
2018-09-27T18:27:50.479Z,16.10
2018-09-27T18:30:26.081Z,14.83
2018-09-27T18:33:01.655Z,15.43
2018-09-27T18:35:37.325Z,15.90
2018-09-27T18:38:12.894Z,16.37
2018-09-27T18:40:48.577Z,18.10
2018-09-27T18:43:24.048Z,19.17
2018-09-27T18:45:59.609Z,17.57
2018-09-27T18:48:35.087Z,18.03
2018-09-27T18:51:10.791Z,17.45
2018-09-27T18:53:46.352Z,16.17
2018-09-27T18:56:21.985Z,18.20
2018-09-27T18:58:57.325Z,17.77
2018-09-27T19:01:32.909Z,17.77
2018-09-27T19:04:08.427Z,19.90
2018-09-27T19:06:44.000Z,19.80
2018-09-27T19:09:19.389Z,19.67
2018-09-27T19:11:55.037Z,19.52
2018-09-27T19:14:30.512Z,18.17
2018-09-27T19:17:06.440Z,18.73
2018-09-27T19:19:41.881Z,19.45
2018-09-27T19:22:17.632Z,19.45
2018-09-27T19:24:53.221Z,17.37
2018-09-27T19:27:28.783Z,18.77
2018-09-27T19:30:04.217Z,21.33
2018-09-27T19:32:39.867Z,20.55
2018-09-27T19:35:15.385Z,20.05
2018-09-27T19:37:51.064Z,20.05
2018-09-27T19:40:26.458Z,21.35
2018-09-27T19:43:02.057Z,22.80
2018-09-27T19:45:37.601Z,18.62
2018-09-27T19:48:13.029Z,19.20
2018-09-27T19:50:48.465Z,19.30
2018-09-27T19:53:24.090Z,22.00
2018-09-27T19:55:59.614Z,20.90
2018-09-27T19:58:35.202Z,19.02
2018-09-27T20:01:10.723Z,20.08
2018-09-27T20:03:46.165Z,18.35
2018-09-27T20:06:21.657Z,18.30
2018-09-27T20:08:57.069Z,18.37
2018-09-27T20:11:32.483Z,18.25
2018-09-27T20:14:08.370Z,16.60
2018-09-27T20:16:43.895Z,15.03
2018-09-27T20:19:19.136Z,14.05
2018-09-27T20:21:54.592Z,18.35
2018-09-27T20:24:30.154Z,14.45
2018-09-27T20:27:05.689Z,12.15
2018-09-27T20:29:41.391Z,12.00
2018-09-27T20:32:16.960Z,12.20
2018-09-27T20:34:52.542Z,11.73
2018-09-27T20:37:27.876Z,11.20
2018-09-27T20:40:03.497Z,11.60
2018-09-27T20:42:38.978Z,10.85
2018-09-27T20:45:14.593Z,10.25
2018-09-27T20:47:50.084Z,10.58
2018-09-27T20:50:25.876Z,11.00
2018-09-27T20:53:01.234Z,10.90
2018-09-27T20:55:36.777Z,11.08
2018-09-27T20:58:12.073Z,11.25
2018-09-27T21:00:47.984Z,10.13
2018-09-27T21:03:23.155Z,9.98
2018-09-27T21:05:58.652Z,10.95
2018-09-27T21:08:34.101Z,11.40
2018-09-27T21:11:09.644Z,10.40
2018-09-27T21:13:45.040Z,10.58
2018-09-27T21:16:20.389Z,10.88
2018-09-27T21:18:55.861Z,12.20
2018-09-27T21:21:31.221Z,12.85
2018-09-27T21:24:06.811Z,13.88
2018-09-27T21:26:42.526Z,13.78
2018-09-27T21:29:17.949Z,12.50
2018-09-27T21:31:53.473Z,11.12
2018-09-27T21:34:28.911Z,11.80
2018-09-27T21:37:04.604Z,11.15
2018-09-27T21:39:40.013Z,13.75
2018-09-27T21:42:15.618Z,12.15
2018-09-27T21:44:51.071Z,12.58
2018-09-27T21:47:26.696Z,13.32
2018-09-27T21:50:02.035Z,13.25
2018-09-27T21:52:37.717Z,12.33
2018-09-27T21:55:12.924Z,13.05
2018-09-27T21:57:48.333Z,15.00
2018-09-27T22:00:23.832Z,13.58
2018-09-27T22:02:59.369Z,13.35
2018-09-27T22:05:34.576Z,13.90
2018-09-27T22:08:10.161Z,13.00
2018-09-27T22:10:45.550Z,14.55
2018-09-27T22:13:20.988Z,15.20
2018-09-27T22:15:56.401Z,14.78
2018-09-27T22:18:32.154Z,15.75
2018-09-27T22:21:08.124Z,14.78
2018-09-27T22:23:43.683Z,16.37
2018-09-27T22:26:19.015Z,15.65
2018-09-27T22:28:55.041Z,17.57
2018-09-27T22:31:30.627Z,19.77
2018-09-27T22:34:06.201Z,21.00
2018-09-27T22:36:41.818Z,21.23
2018-09-27T22:39:17.361Z,23.10
2018-09-27T22:41:52.689Z,23.55
2018-09-27T22:44:27.980Z,24.75
2018-09-27T22:47:03.195Z,24.90
2018-09-27T22:49:38.727Z,25.77
2018-09-27T22:52:14.269Z,26.35
2018-09-27T22:54:50.034Z,28.30
2018-09-27T22:57:25.374Z,27.05
2018-09-27T23:00:01.006Z,28.15
2018-09-27T23:02:36.300Z,28.25
2018-09-27T23:05:11.790Z,29.92
2018-09-27T23:07:47.420Z,28.98
2018-09-27T23:10:22.786Z,31.37
2018-09-27T23:12:58.358Z,30.65
2018-09-27T23:15:33.787Z,30.95
2018-09-27T23:18:09.250Z,30.75
2018-09-27T23:20:45.159Z,30.30
2018-09-27T23:23:20.584Z,31.07
2018-09-27T23:25:56.246Z,32.15
2018-09-27T23:28:31.407Z,32.23
2018-09-27T23:31:07.048Z,32.33
2018-09-27T23:33:42.517Z,25.32
2018-09-27T23:36:18.380Z,24.25
2018-09-27T23:38:53.704Z,20.82
2018-09-27T23:41:29.248Z,16.60
2018-09-27T23:44:04.597Z,15.85
2018-09-27T23:46:40.234Z,15.20
2018-09-27T23:49:15.538Z,12.40
2018-09-27T23:51:51.693Z,9.55
2018-09-27T23:54:27.049Z,8.60
2018-09-27T23:57:02.453Z,7.67
2018-09-27T23:59:37.788Z,6.80
